CDT,Max TemperatureF,Mean TemperatureF,Min TemperatureF,Max Dew PointF,MeanDew PointF,Min DewpointF,Max Humidity, Mean Humidity, Min Humidity, Max Sea Level PressureIn, Mean Sea Level PressureIn, Min Sea Level PressureIn, Max VisibilityMiles, Mean VisibilityMiles, Min VisibilityMiles, Max Wind SpeedMPH, Mean Wind SpeedMPH, Max Gust SpeedMPH,PrecipitationIn, CloudCover, Events, WindDirDegrees
2013-9-1,86,76,66,70,62,55,79,58,37,29.94,29.84,29.76,10,10,5,29,12,37,0.17,4,Rain-Thunderstorm,351
2013-9-2,81,70,58,57,54,48,93,64,35,30.05,30.01,29.96,10,10,10,15,7,20,0.00,0,,5
2013-9-3,83,69,55,59,54,52,86,62,37,30.12,30.06,30.02,10,10,10,10,3,16,0.00,1,,124
2013-9-4,92,78,63,63,57,55,78,55,32,30.14,30.09,30.05,10,10,10,13,4,15,0.00,4,,226
2013-9-5,92,81,70,65,63,61,79,59,38,30.17,30.12,30.09,10,10,10,10,3,16,0.00,6,,206
2013-9-6,93,80,67,65,60,56,84,57,30,30.11,30.03,29.93,10,10,9,18,9,22,0.00,1,,176
2013-9-7,96,85,73,71,66,60,74,57,39,29.94,29.88,29.82,10,10,10,16,8,19,T,5,Rain,255
2013-9-8,91,82,73,72,70,69,87,70,52,29.93,29.86,29.80,10,9,6,17,8,22,0.00,2,,77
2013-9-9,101,87,73,71,64,59,87,57,26,29.84,29.79,29.76,10,10,8,25,11,32,0.00,0,,205
2013-9-10,99,86,73,65,62,60,64,47,30,29.97,29.91,29.86,10,10,10,28,12,35,0.00,1,,230
2013-9-11,89,81,73,68,66,61,79,63,47,30.07,30.03,29.96,10,10,10,14,6,17,T,7,,298
2013-9-12,81,72,63,63,50,41,73,50,26,30.17,30.12,30.05,10,10,10,21,10,29,0.00,2,,1
2013-9-13,76,66,55,47,45,42,72,52,31,30.24,30.16,30.10,10,10,10,10,5,15,0.00,1,,66
2013-9-14,79,64,49,50,42,39,74,51,27,30.12,30.04,29.91,10,10,7,17,10,25,T,5,,170
2013-9-15,72,66,60,63,56,45,93,67,40,30.23,29.99,29.86,10,10,10,22,11,28,0.04,8,Rain-Thunderstorm,302
2013-9-16,65,60,55,53,52,51,86,75,63,30.36,30.29,30.24,10,10,10,14,8,19,0.00,7,,90
2013-9-17,68,62,55,63,57,51,93,84,75,30.24,30.11,29.98,10,4,1,16,10,19,0.86,8,Rain,135
2013-9-18,92,80,67,69,66,63,87,67,47,29.97,29.85,29.73,10,8,4,23,13,30,T,5,Rain-Thunderstorm,178
2013-9-19,88,76,64,69,65,61,93,74,55,29.88,29.79,29.73,10,8,0,36,12,47,1.06,7,Fog-Rain-Thunderstorm,238
2013-9-20,71,63,54,56,50,44,80,64,47,29.99,29.94,29.88,10,10,10,24,12,30,0.00,4,,327
2013-9-21,74,61,47,47,44,41,86,59,31,30.04,29.97,29.90,10,10,10,12,5,14,0.00,0,,284
2013-9-22,79,66,53,53,49,45,72,56,39,29.98,29.92,29.87,10,10,10,17,10,23,0.00,0,,159
2013-9-23,78,66,54,52,49,48,83,60,36,29.96,29.90,29.83,10,10,10,24,13,31,0.00,2,,145
2013-9-24,74,66,58,61,54,49,77,67,57,29.89,29.85,29.83,10,10,10,15,8,21,0.01,5,Rain,101
2013-9-25,80,68,56,59,55,51,86,66,45,29.94,29.88,29.83,10,10,7,15,7,17,0.00,1,,103
2013-9-26,85,73,61,63,59,55,84,64,44,29.93,29.88,29.85,10,9,7,23,13,30,0.00,0,,148
2013-9-27,87,77,67,63,61,59,81,61,40,29.96,29.90,29.85,10,10,10,28,15,32,0.00,1,,159
2013-9-28,71,61,50,65,57,48,86,73,60,30.05,29.88,29.78,10,8,2,25,12,32,0.22,5,Rain-Thunderstorm,249
2013-9-29,75,61,47,48,45,43,86,59,31,30.07,30.01,29.93,10,10,10,18,8,22,0.00,0,,196
2013-9-30,78,64,50,58,50,46,89,63,36,29.93,29.84,29.74,10,10,10,22,12,29,0.00,2,,182